Impacts METAR Board
IDs:

KBBD - Brady/Curtis Fld, TX, US

Updated at: 2000 UTC 17 Nov 2019
Potential Impact None Slight Moderate High
Time 17/08Z 17/09Z 17/10Z 17/11Z 17/12Z 17/13Z 17/14Z 17/15Z 17/16Z 17/17Z 17/18Z 17/19Z 17/20Z
Temp46 43 45 45 43 43 43 46 54 57 61 64 64
Dewpt36 36 36 36 36 36 37 39 41 41 41 41 39
Altim30.02 30.01 30.00 30.00 30.01 30.01 30.04 30.07 30.08 30.07 30.05 30.02 30.00
VIS10 10 10 10 10 10 10 10 10 10 10 10 10
CIG-- -- -- -- -- -- -- -- -- -- -- -- --
CoverCLRCLRCLRCLRCLRCLRCLRCLRCLRCLRCLRCLRCLR
FltCatVFRVFRVFRVFRVFRVFRVFRVFRVFRVFRVFRVFRVFR
WX--------------------------
WDir180200170170180170170330290340320320300
WSpd3 8 4 5 5 6 3 4 6 6 7 9 10
WGst-- -- -- -- -- -- -- -- -- -- -- 15 --
Raw hourly METARs
KBBD 170755Z AUTO 18003KT 10SM CLR 08/02 A3002 RMK AO2
KBBD 170855Z AUTO 20008KT 10SM CLR 06/02 A3001 RMK AO2
KBBD 170955Z AUTO 17004KT 10SM CLR 07/02 A3000 RMK AO2
KBBD 171055Z AUTO 17005KT 10SM CLR 07/02 A3000 RMK AO2
KBBD 171155Z AUTO 18005KT 10SM CLR 06/02 A3001 RMK AO2
KBBD 171255Z AUTO 17006KT 10SM CLR 06/02 A3001 RMK AO2
KBBD 171355Z AUTO 17003KT 10SM CLR 06/03 A3004 RMK AO2
KBBD 171455Z AUTO 33004KT 10SM CLR 08/04 A3007 RMK AO2
KBBD 171555Z AUTO 29006KT 10SM CLR 12/05 A3008 RMK AO2
KBBD 171655Z AUTO 34006KT 10SM CLR 14/05 A3007 RMK AO2
KBBD 171755Z AUTO 32007KT 280V350 10SM CLR 16/05 A3005 RMK AO2
KBBD 171855Z AUTO 32009G15KT 10SM CLR 18/05 A3002 RMK AO2
KBBD 171955Z AUTO 30010KT 10SM CLR 18/04 A3000 RMK AO2



Page loaded:  20:43 UTC  |   12:43 PM Pacific  |   01:43 PM Mountain  |   02:43 PM Central  |   03:43 PM Eastern

 

ADVISORIES

FORECASTS

FORECASTS

OBSERVATIONS

USER TOOLS

ABOUT US